createdAt,value
2017-05-16T00:02:07.575Z,11.10
2017-05-16T00:04:35.719Z,11.20
2017-05-16T00:07:03.575Z,11.20
2017-05-16T00:09:31.039Z,11.20
2017-05-16T00:11:58.803Z,11.20
2017-05-16T00:14:26.660Z,11.30
2017-05-16T00:16:54.523Z,11.20
2017-05-16T00:19:22.307Z,11.20
2017-05-16T00:21:50.169Z,11.20
2017-05-16T00:24:17.632Z,11.20
2017-05-16T00:26:45.953Z,11.00
2017-05-16T00:29:13.874Z,10.80
2017-05-16T00:31:41.723Z,10.80
2017-05-16T00:34:10.117Z,10.70
2017-05-16T00:36:37.975Z,10.60
2017-05-16T00:39:05.439Z,10.60
2017-05-16T00:41:33.019Z,10.50
2017-05-16T00:44:00.874Z,10.40
2017-05-16T00:46:28.732Z,10.40
2017-05-16T00:48:56.723Z,10.40
2017-05-16T00:51:24.179Z,10.40
2017-05-16T00:53:52.036Z,10.40
2017-05-16T00:56:20.295Z,10.30
2017-05-16T00:58:47.762Z,10.30
2017-05-16T01:01:15.624Z,10.40
2017-05-16T01:03:43.900Z,10.40
2017-05-16T01:06:11.760Z,10.40
2017-05-16T01:08:39.224Z,10.40
2017-05-16T01:11:07.498Z,10.10
2017-05-16T01:13:35.356Z,10.10
2017-05-16T01:16:03.215Z,10.00
2017-05-16T01:18:30.806Z,10.00
2017-05-16T01:20:58.269Z,10.00
2017-05-16T01:23:26.132Z,10.00
2017-05-16T01:25:54.383Z,9.90
2017-05-16T01:28:22.235Z,9.90
2017-05-16T01:30:49.912Z,9.90
2017-05-16T01:33:18.287Z,9.90
2017-05-16T01:35:46.137Z,9.90
2017-05-16T01:38:13.593Z,9.90
2017-05-16T01:40:41.067Z,9.90
2017-05-16T01:43:08.916Z,9.90
2017-05-16T01:45:36.779Z,9.80
2017-05-16T01:48:04.562Z,9.80
2017-05-16T01:50:32.415Z,9.60
2017-05-16T01:52:59.878Z,9.60
2017-05-16T01:55:27.854Z,9.60
2017-05-16T01:57:55.709Z,9.60
2017-05-16T02:00:23.167Z,9.60
2017-05-16T02:02:51.038Z,9.50
2017-05-16T02:05:18.891Z,9.50
2017-05-16T02:07:46.740Z,9.50
2017-05-16T02:10:14.743Z,9.50
2017-05-16T02:12:42.596Z,9.50
2017-05-16T02:15:10.056Z,9.50
2017-05-16T02:17:38.036Z,9.60
2017-05-16T02:20:05.887Z,9.50
2017-05-16T02:22:33.342Z,9.50
2017-05-16T02:25:01.101Z,9.50
2017-05-16T02:27:28.564Z,9.40
2017-05-16T02:29:56.017Z,9.40
2017-05-16T02:32:24.306Z,9.20
2017-05-16T02:34:51.760Z,9.20
2017-05-16T02:37:19.612Z,9.10
2017-05-16T02:39:47.592Z,9.10
2017-05-16T02:42:15.051Z,9.10
2017-05-16T02:44:42.905Z,9.00
2017-05-16T02:47:10.384Z,9.00
2017-05-16T02:49:37.834Z,9.00
2017-05-16T02:52:05.290Z,9.10
2017-05-16T02:54:33.576Z,9.10
2017-05-16T02:57:01.426Z,9.10
2017-05-16T02:59:28.882Z,9.10
2017-05-16T03:01:57.001Z,9.10
2017-05-16T03:04:24.859Z,9.10
2017-05-16T03:06:52.706Z,9.10
2017-05-16T03:09:20.580Z,9.10
2017-05-16T03:11:48.437Z,9.00
2017-05-16T03:14:16.283Z,9.10
2017-05-16T03:16:44.272Z,9.10
2017-05-16T03:19:12.127Z,9.00
2017-05-16T03:21:39.979Z,9.00
2017-05-16T03:24:08.074Z,9.00
2017-05-16T03:26:35.527Z,9.00
2017-05-16T03:29:02.977Z,8.90
2017-05-16T03:31:30.856Z,8.90
2017-05-16T03:33:58.707Z,8.90
2017-05-16T03:36:26.162Z,8.90
2017-05-16T03:38:54.339Z,8.90
2017-05-16T03:41:21.842Z,8.90
2017-05-16T03:43:49.667Z,9.00
2017-05-16T03:46:17.781Z,8.90
2017-05-16T03:48:45.636Z,8.90
2017-05-16T03:51:13.090Z,8.90
2017-05-16T03:53:41.439Z,8.80
2017-05-16T03:56:09.293Z,8.80
2017-05-16T03:58:36.755Z,8.80
2017-05-16T04:01:04.732Z,8.80
2017-05-16T04:03:32.590Z,8.80
2017-05-16T04:06:00.443Z,8.90
2017-05-16T04:08:28.027Z,8.90
2017-05-16T04:10:55.880Z,9.00
2017-05-16T04:13:23.335Z,9.00
2017-05-16T04:15:51.316Z,9.30
2017-05-16T04:18:18.775Z,9.30
2017-05-16T04:20:46.228Z,9.30
2017-05-16T04:23:14.465Z,9.50
2017-05-16T04:25:42.292Z,9.80
2017-05-16T04:28:10.174Z,10.10
2017-05-16T04:30:38.054Z,10.20
2017-05-16T04:33:05.908Z,10.20
2017-05-16T04:35:34.348Z,10.30
2017-05-16T04:38:02.207Z,10.40
2017-05-16T04:40:30.059Z,10.80
2017-05-16T04:42:58.245Z,11.00
2017-05-16T04:45:26.098Z,11.00
2017-05-16T04:47:53.560Z,11.00
2017-05-16T04:50:21.539Z,11.00
2017-05-16T04:52:49.392Z,11.10
2017-05-16T04:55:17.250Z,11.00
2017-05-16T04:57:45.447Z,11.10
2017-05-16T05:00:13.299Z,11.10
2017-05-16T05:02:40.762Z,11.10
2017-05-16T05:05:08.447Z,11.10
2017-05-16T05:07:35.916Z,11.20
2017-05-16T05:10:03.775Z,11.50
2017-05-16T05:12:32.027Z,11.70
2017-05-16T05:14:59.894Z,11.90
2017-05-16T05:17:27.763Z,12.10
2017-05-16T05:19:56.023Z,12.30
2017-05-16T05:22:23.885Z,12.40
2017-05-16T05:24:51.351Z,12.40
2017-05-16T05:27:19.867Z,12.70
2017-05-16T05:29:47.732Z,12.60
2017-05-16T05:32:15.587Z,12.90
2017-05-16T05:34:43.747Z,12.90
2017-05-16T05:37:11.216Z,12.90
2017-05-16T05:39:39.079Z,13.00
2017-05-16T05:42:07.350Z,13.10
2017-05-16T05:44:35.219Z,13.30
2017-05-16T05:47:03.082Z,13.40
2017-05-16T05:49:30.970Z,13.60
2017-05-16T05:51:58.831Z,13.60
2017-05-16T05:54:26.707Z,13.70
2017-05-16T05:56:54.805Z,13.70
2017-05-16T05:59:22.675Z,13.80
2017-05-16T06:01:50.915Z,13.90
2017-05-16T06:04:19.078Z,14.00
2017-05-16T06:06:47.081Z,14.20
2017-05-16T06:09:14.943Z,14.40
2017-05-16T06:11:43.217Z,14.40
2017-05-16T06:14:11.078Z,14.50
2017-05-16T06:16:38.595Z,14.50
2017-05-16T06:19:06.570Z,14.90
2017-05-16T06:21:34.438Z,15.40
2017-05-16T06:24:01.894Z,15.40
2017-05-16T06:26:30.166Z,15.40
2017-05-16T06:28:58.026Z,15.10
2017-05-16T06:31:25.496Z,15.10
2017-05-16T06:33:53.528Z,15.10
2017-05-16T06:36:20.979Z,15.10
2017-05-16T06:38:48.452Z,15.10
2017-05-16T06:41:16.063Z,15.40
2017-05-16T06:43:43.929Z,15.50
2017-05-16T06:46:11.400Z,15.50
2017-05-16T06:48:39.646Z,15.80
2017-05-16T06:51:07.507Z,16.00
2017-05-16T06:53:35.415Z,16.00
2017-05-16T06:56:03.336Z,16.00
2017-05-16T06:58:31.208Z,15.80
2017-05-16T07:00:59.076Z,16.10
2017-05-16T07:03:27.167Z,16.20
2017-05-16T07:05:55.035Z,16.20
2017-05-16T07:08:22.898Z,16.30
2017-05-16T07:10:50.782Z,16.30
2017-05-16T07:13:18.255Z,16.30
2017-05-16T07:15:46.120Z,16.50
2017-05-16T07:18:14.431Z,16.50
2017-05-16T07:20:42.295Z,16.70
2017-05-16T07:23:09.768Z,16.70
2017-05-16T07:25:38.029Z,17.20
2017-05-16T07:28:06.714Z,17.20
2017-05-16T07:30:34.192Z,17.50
2017-05-16T07:33:02.605Z,17.60
2017-05-16T07:35:30.863Z,17.60
2017-05-16T07:37:58.803Z,17.50
2017-05-16T07:40:27.093Z,17.60
2017-05-16T07:42:55.062Z,17.50
2017-05-16T07:45:22.943Z,17.60
2017-05-16T07:47:50.437Z,17.60
2017-05-16T07:50:18.529Z,18.10
2017-05-16T07:52:46.263Z,18.10
2017-05-16T07:55:13.737Z,18.20
2017-05-16T07:57:41.604Z,18.20
2017-05-16T08:00:09.796Z,18.50
2017-05-16T08:02:37.711Z,18.60
2017-05-16T08:05:05.577Z,18.40
2017-05-16T08:07:33.952Z,18.40
2017-05-16T08:10:01.419Z,18.40
2017-05-16T08:12:29.272Z,18.70
2017-05-16T08:14:57.609Z,18.90
2017-05-16T08:17:25.472Z,19.00
2017-05-16T08:19:53.333Z,19.00
2017-05-16T08:22:21.467Z,19.10
2017-05-16T08:24:49.328Z,19.20
2017-05-16T08:27:17.559Z,19.30
2017-05-16T08:29:45.255Z,19.30
2017-05-16T08:32:12.718Z,19.30
2017-05-16T08:34:40.180Z,19.40
2017-05-16T08:37:08.426Z,19.60
2017-05-16T08:39:36.290Z,19.70
2017-05-16T08:42:04.147Z,19.70
2017-05-16T08:44:31.637Z,19.70
2017-05-16T08:46:59.507Z,19.60
2017-05-16T08:49:26.972Z,19.60
2017-05-16T08:51:55.324Z,19.90
2017-05-16T08:54:22.840Z,19.90
2017-05-16T08:56:50.283Z,20.10
2017-05-16T08:59:18.427Z,20.30
2017-05-16T09:01:46.278Z,20.10
2017-05-16T09:04:14.135Z,20.30
2017-05-16T09:06:42.007Z,20.20
2017-05-16T09:09:09.859Z,20.30
2017-05-16T09:11:37.717Z,20.40
2017-05-16T09:14:05.713Z,20.50
2017-05-16T09:16:33.180Z,20.50
2017-05-16T09:19:00.662Z,20.60
2017-05-16T09:21:28.142Z,20.80
2017-05-16T09:23:56.004Z,20.80
2017-05-16T09:26:24.395Z,20.90
2017-05-16T09:28:51.855Z,20.90
2017-05-16T09:31:19.711Z,20.90
2017-05-16T09:33:48.212Z,21.00
2017-05-16T09:36:16.076Z,21.10
2017-05-16T09:38:43.926Z,21.30
2017-05-16T09:41:11.790Z,21.30
2017-05-16T09:43:39.645Z,21.20
2017-05-16T09:46:07.113Z,21.20
2017-05-16T09:48:35.091Z,21.30
2017-05-16T09:51:02.556Z,21.30
2017-05-16T09:53:30.412Z,21.20
2017-05-16T09:55:58.683Z,21.50
2017-05-16T09:58:26.148Z,21.50
2017-05-16T10:00:53.610Z,21.60
2017-05-16T10:03:21.975Z,21.50
2017-05-16T10:05:49.833Z,21.40
2017-05-16T10:08:17.698Z,21.40
2017-05-16T10:10:45.884Z,21.50
2017-05-16T10:13:13.744Z,21.60
2017-05-16T10:15:41.207Z,21.60
2017-05-16T10:18:09.480Z,21.70
2017-05-16T10:20:37.343Z,21.50
2017-05-16T10:23:05.199Z,21.80
2017-05-16T10:25:33.387Z,21.80
2017-05-16T10:28:01.423Z,21.90
2017-05-16T10:30:29.279Z,21.80
2017-05-16T10:32:57.289Z,21.80
2017-05-16T10:37:51.860Z,22.10
2017-05-16T10:40:20.032Z,22.20
2017-05-16T10:42:48.260Z,22.20
2017-05-16T10:45:16.114Z,22.30
2017-05-16T10:47:43.599Z,22.30
2017-05-16T10:50:11.064Z,22.40
2017-05-16T10:52:38.920Z,22.50
2017-05-16T10:55:07.168Z,22.60
2017-05-16T10:57:35.034Z,22.50
2017-05-16T11:00:02.499Z,22.50
2017-05-16T11:02:30.671Z,22.50
2017-05-16T11:04:58.524Z,22.70
2017-05-16T11:07:26.385Z,22.80
2017-05-16T11:09:53.992Z,22.80
2017-05-16T11:12:21.452Z,22.90
2017-05-16T11:14:48.914Z,22.80
2017-05-16T11:17:17.350Z,22.60
2017-05-16T11:19:44.814Z,22.60
2017-05-16T11:22:12.672Z,22.80
2017-05-16T11:24:40.938Z,22.90
2017-05-16T11:27:08.836Z,22.90
2017-05-16T11:29:36.695Z,23.00
2017-05-16T11:32:05.157Z,23.10
2017-05-16T11:34:33.010Z,23.20
2017-05-16T11:37:00.867Z,23.30
2017-05-16T11:39:29.061Z,23.50
2017-05-16T11:41:56.523Z,23.50
2017-05-16T11:44:24.379Z,23.50
2017-05-16T11:46:52.659Z,23.40
2017-05-16T11:49:20.515Z,23.50
2017-05-16T11:51:48.375Z,23.60
2017-05-16T11:54:16.563Z,23.60
2017-05-16T11:56:44.018Z,23.60
2017-05-16T11:59:11.872Z,23.60
2017-05-16T12:01:39.608Z,23.70
2017-05-16T12:04:07.075Z,23.60
2017-05-16T12:06:34.539Z,23.70
2017-05-16T12:09:02.531Z,23.80
2017-05-16T12:11:30.390Z,23.90
2017-05-16T12:13:58.251Z,23.90
2017-05-16T12:16:25.988Z,23.80
2017-05-16T12:18:53.452Z,23.90
2017-05-16T12:21:20.914Z,24.00
2017-05-16T12:23:48.811Z,24.10
2017-05-16T12:26:16.671Z,24.40
2017-05-16T12:28:44.524Z,24.30
2017-05-16T12:31:12.718Z,24.30
2017-05-16T12:33:40.583Z,24.40
2017-05-16T12:36:08.054Z,24.40
2017-05-16T12:38:36.196Z,24.50
2017-05-16T12:41:04.059Z,24.30
2017-05-16T12:43:31.515Z,24.30
2017-05-16T12:45:59.788Z,24.20
2017-05-16T12:48:27.649Z,24.30
2017-05-16T12:50:55.506Z,24.30
2017-05-16T12:53:23.459Z,24.30
2017-05-16T12:55:50.920Z,24.30
2017-05-16T12:58:18.387Z,24.40
2017-05-16T13:00:46.479Z,24.70
2017-05-16T13:03:14.338Z,24.40
2017-05-16T13:05:42.198Z,24.70
2017-05-16T13:08:10.327Z,24.60
2017-05-16T13:10:37.800Z,24.60
2017-05-16T13:13:05.662Z,24.60
2017-05-16T13:15:33.995Z,24.70
2017-05-16T13:18:01.847Z,24.60
2017-05-16T13:20:29.313Z,24.60
2017-05-16T13:22:56.798Z,24.70
2017-05-16T13:25:24.659Z,24.90
2017-05-16T13:27:52.511Z,24.90
2017-05-16T13:30:20.271Z,24.90
2017-05-16T13:32:48.139Z,24.80
2017-05-16T13:35:15.997Z,25.00
2017-05-16T13:37:43.863Z,24.90
2017-05-16T13:40:11.322Z,25.20
2017-05-16T13:42:38.778Z,25.00
2017-05-16T13:45:06.660Z,24.80
2017-05-16T13:47:34.517Z,24.90
2017-05-16T13:50:02.377Z,25.10
2017-05-16T13:52:30.143Z,25.10
2017-05-16T13:54:57.996Z,25.20
2017-05-16T13:57:25.456Z,25.20
2017-05-16T13:59:53.156Z,25.10
2017-05-16T14:02:21.014Z,25.20
2017-05-16T14:04:48.922Z,25.10
2017-05-16T14:07:16.730Z,25.10
2017-05-16T14:09:44.597Z,25.20
2017-05-16T14:12:12.460Z,25.30
2017-05-16T14:14:40.627Z,25.20
2017-05-16T14:17:08.484Z,25.20
2017-05-16T14:19:36.342Z,25.20
2017-05-16T14:22:04.530Z,25.10
2017-05-16T14:24:32.391Z,25.30
2017-05-16T14:26:59.855Z,25.30
2017-05-16T14:29:27.520Z,25.40
2017-05-16T14:31:55.378Z,25.30
2017-05-16T14:34:22.844Z,25.30
2017-05-16T14:36:51.120Z,25.50
2017-05-16T14:39:18.974Z,25.50
2017-05-16T14:41:46.434Z,25.50
2017-05-16T14:44:14.335Z,25.60
2017-05-16T14:46:42.187Z,25.70
2017-05-16T14:49:09.642Z,25.70
2017-05-16T14:51:37.919Z,25.60
2017-05-16T14:54:05.774Z,25.50
2017-05-16T14:56:33.632Z,25.60
2017-05-16T14:59:01.378Z,25.60
2017-05-16T15:01:28.833Z,25.60
2017-05-16T15:03:56.691Z,25.70
2017-05-16T15:06:24.798Z,25.70
2017-05-16T15:08:52.659Z,25.70
2017-05-16T15:11:20.519Z,25.60
2017-05-16T15:13:48.799Z,25.60
2017-05-16T15:16:16.650Z,25.70
2017-05-16T15:18:44.117Z,25.70
2017-05-16T15:21:12.400Z,25.90
2017-05-16T15:23:40.258Z,25.80
2017-05-16T15:26:07.718Z,25.80
2017-05-16T15:28:35.428Z,25.80
2017-05-16T15:31:03.656Z,25.70
2017-05-16T15:33:31.119Z,25.80
2017-05-16T15:35:58.975Z,25.80
2017-05-16T15:38:26.431Z,25.80
2017-05-16T15:40:53.891Z,25.70
2017-05-16T15:43:21.646Z,25.70
2017-05-16T15:45:49.506Z,25.70
2017-05-16T15:48:16.974Z,25.70
2017-05-16T15:50:45.173Z,25.60
2017-05-16T15:53:12.724Z,25.60
2017-05-16T15:55:40.579Z,25.50
2017-05-16T15:58:08.456Z,25.60
2017-05-16T16:00:36.315Z,25.70
2017-05-16T16:03:04.177Z,25.70
2017-05-16T16:05:32.047Z,25.70
2017-05-16T16:07:59.910Z,25.90
2017-05-16T16:10:27.766Z,25.90
2017-05-16T16:12:55.896Z,25.90
2017-05-16T16:15:23.952Z,25.80
2017-05-16T16:17:51.803Z,25.70
2017-05-16T16:20:19.683Z,25.70
2017-05-16T16:22:47.138Z,25.80
2017-05-16T16:25:14.998Z,25.70
2017-05-16T16:27:43.440Z,25.70
2017-05-16T16:30:10.907Z,25.70
2017-05-16T16:32:38.763Z,25.90
2017-05-16T16:35:07.040Z,25.70
2017-05-16T16:37:34.903Z,25.70
2017-05-16T16:40:02.359Z,25.70
2017-05-16T16:42:30.635Z,26.00
2017-05-16T16:44:58.485Z,26.00
2017-05-16T16:47:26.348Z,26.00
2017-05-16T16:49:54.231Z,26.00
2017-05-16T16:52:22.087Z,26.10
2017-05-16T16:54:49.952Z,25.90
2017-05-16T16:57:17.429Z,25.90
2017-05-16T16:59:45.282Z,26.20
2017-05-16T17:02:12.741Z,26.20
2017-05-16T17:04:41.122Z,26.30
2017-05-16T17:07:08.974Z,27.00
2017-05-16T17:09:36.846Z,27.80
2017-05-16T17:12:05.006Z,28.60
2017-05-16T17:14:32.855Z,28.80
2017-05-16T17:17:01.011Z,28.70
2017-05-16T17:19:29.238Z,28.80
2017-05-16T17:21:56.699Z,28.80
2017-05-16T17:24:24.550Z,28.20
2017-05-16T17:26:52.488Z,28.20
2017-05-16T17:29:20.356Z,27.90
2017-05-16T17:31:48.593Z,27.70
2017-05-16T17:34:16.746Z,27.00
2017-05-16T17:36:44.600Z,26.70
2017-05-16T17:39:12.056Z,26.70
2017-05-16T17:41:40.318Z,26.10
2017-05-16T17:44:08.175Z,26.10
2017-05-16T17:46:36.035Z,25.60
2017-05-16T17:49:03.917Z,25.20
2017-05-16T17:51:31.378Z,25.20
2017-05-16T17:53:59.280Z,24.60
2017-05-16T17:56:27.531Z,24.60
2017-05-16T17:58:54.990Z,24.60
2017-05-16T18:01:22.451Z,24.40
2017-05-16T18:03:50.328Z,24.20
2017-05-16T18:06:18.246Z,24.10
2017-05-16T18:08:46.377Z,23.80
2017-05-16T18:11:15.135Z,23.60
2017-05-16T18:13:42.625Z,23.60
2017-05-16T18:16:13.084Z,23.40
2017-05-16T18:18:40.554Z,23.40
2017-05-16T18:21:08.017Z,23.30
2017-05-16T18:23:35.979Z,23.10
2017-05-16T18:26:04.544Z,22.80
2017-05-16T18:28:32.404Z,22.70
2017-05-16T18:31:00.989Z,22.60
2017-05-16T18:33:28.849Z,22.50
2017-05-16T18:35:57.142Z,22.40
2017-05-16T18:38:25.559Z,22.40
2017-05-16T18:40:53.771Z,22.10
2017-05-16T18:43:21.691Z,22.00
2017-05-16T18:45:50.318Z,21.90
2017-05-16T18:48:18.179Z,21.80
2017-05-16T18:50:46.426Z,21.70
2017-05-16T18:53:14.624Z,21.60
2017-05-16T18:55:42.494Z,21.40
2017-05-16T18:58:10.679Z,21.30
2017-05-16T19:00:38.283Z,21.30
2017-05-16T19:03:06.951Z,21.10
2017-05-16T19:05:34.926Z,20.80
2017-05-16T19:08:03.787Z,20.70
2017-05-16T19:10:32.183Z,20.60
2017-05-16T19:12:59.897Z,20.70
2017-05-16T19:15:28.259Z,20.20
2017-05-16T19:17:56.123Z,20.00
2017-05-16T19:20:24.452Z,19.90
2017-05-16T19:22:53.088Z,19.80
2017-05-16T19:25:21.167Z,19.80
2017-05-16T19:27:49.097Z,19.80
2017-05-16T19:30:17.175Z,19.70
2017-05-16T19:32:45.631Z,19.50
2017-05-16T19:35:13.926Z,19.40
2017-05-16T19:37:43.048Z,19.20
2017-05-16T19:40:11.172Z,19.10
2017-05-16T19:42:38.640Z,19.10
2017-05-16T19:45:06.487Z,19.20
2017-05-16T19:47:34.824Z,19.10
2017-05-16T19:50:02.707Z,18.90
2017-05-16T19:52:30.999Z,18.80
2017-05-16T19:54:58.912Z,18.90
2017-05-16T19:57:27.183Z,18.90
2017-05-16T19:59:55.046Z,18.70
2017-05-16T20:02:23.044Z,18.60
2017-05-16T20:04:51.795Z,18.50
2017-05-16T20:07:19.706Z,18.40
2017-05-16T20:09:47.590Z,18.30
2017-05-16T20:12:16.088Z,18.30
2017-05-16T20:14:44.280Z,18.40
2017-05-16T20:17:12.506Z,18.50
2017-05-16T20:19:40.196Z,18.50
2017-05-16T20:22:08.350Z,18.30
2017-05-16T20:24:36.803Z,18.10
2017-05-16T20:27:05.076Z,18.00
2017-05-16T20:29:33.147Z,18.00
2017-05-16T20:32:01.108Z,17.90
2017-05-16T20:34:28.595Z,17.90
2017-05-16T20:36:56.843Z,17.80
2017-05-16T20:39:24.912Z,17.80
2017-05-16T20:41:53.203Z,17.80
2017-05-16T20:44:20.958Z,17.60
2017-05-16T20:46:50.342Z,17.30
2017-05-16T20:49:18.844Z,17.30
2017-05-16T20:51:46.831Z,17.20
2017-05-16T20:54:15.408Z,17.20
2017-05-16T20:56:43.854Z,17.30
2017-05-16T20:59:12.304Z,17.30
2017-05-16T21:01:41.008Z,17.20
2017-05-16T21:04:09.372Z,17.20
2017-05-16T21:06:37.701Z,16.80
2017-05-16T21:09:05.843Z,16.70
2017-05-16T21:11:34.039Z,16.60
2017-05-16T21:14:01.993Z,16.70
2017-05-16T21:16:30.478Z,16.60
2017-05-16T21:18:58.826Z,16.60
2017-05-16T21:21:28.215Z,16.50
2017-05-16T21:23:55.712Z,16.50
2017-05-16T21:26:23.975Z,16.50
2017-05-16T21:28:52.850Z,16.40
2017-05-16T21:31:24.132Z,16.40
2017-05-16T21:33:52.530Z,16.40
2017-05-16T21:36:20.772Z,16.50
2017-05-16T21:38:48.745Z,16.60
2017-05-16T21:41:17.666Z,16.40
2017-05-16T21:43:45.791Z,16.20
2017-05-16T21:46:13.806Z,16.20
2017-05-16T21:48:42.247Z,16.20
2017-05-16T21:51:10.562Z,16.20
2017-05-16T21:53:39.255Z,16.40
2017-05-16T21:56:08.067Z,16.40
2017-05-16T21:58:36.353Z,16.40
2017-05-16T22:01:04.540Z,16.50
2017-05-16T22:03:33.362Z,16.40
2017-05-16T22:06:00.845Z,16.40
2017-05-16T22:08:29.055Z,16.10
2017-05-16T22:10:57.342Z,16.10
2017-05-16T22:13:25.836Z,16.10
2017-05-16T22:15:53.702Z,16.10
2017-05-16T22:18:21.942Z,16.20
2017-05-16T22:20:50.305Z,16.20
2017-05-16T22:23:19.464Z,16.10
2017-05-16T22:25:47.758Z,15.90
2017-05-16T22:28:15.729Z,15.70
2017-05-16T22:30:43.855Z,15.70
2017-05-16T22:33:12.388Z,15.60
2017-05-16T22:35:40.660Z,15.70
2017-05-16T22:38:08.648Z,15.70
2017-05-16T22:40:36.274Z,15.70
2017-05-16T22:43:04.266Z,15.50
2017-05-16T22:45:32.960Z,15.50
2017-05-16T22:48:01.114Z,15.30
2017-05-16T22:50:29.008Z,15.40
2017-05-16T22:52:56.911Z,15.30
2017-05-16T22:55:24.965Z,15.40
2017-05-16T22:57:53.011Z,15.40
2017-05-16T23:00:21.075Z,15.30
2017-05-16T23:02:49.709Z,15.20
2017-05-16T23:05:17.231Z,15.20
2017-05-16T23:07:46.423Z,15.00
2017-05-16T23:10:14.461Z,15.00
2017-05-16T23:12:42.794Z,15.00
2017-05-16T23:15:10.625Z,15.20
2017-05-16T23:17:38.254Z,15.00
2017-05-16T23:20:06.238Z,14.70
2017-05-16T23:22:34.887Z,14.50
2017-05-16T23:25:03.144Z,14.50
2017-05-16T23:27:30.748Z,14.50
2017-05-16T23:29:58.352Z,14.50
2017-05-16T23:32:26.914Z,14.50
2017-05-16T23:34:54.989Z,14.30
2017-05-16T23:37:23.447Z,14.30
2017-05-16T23:39:51.511Z,14.20
2017-05-16T23:42:19.408Z,14.10
2017-05-16T23:44:49.104Z,14.30
2017-05-16T23:47:17.341Z,14.30
2017-05-16T23:49:46.397Z,14.40
2017-05-16T23:52:14.356Z,14.30
2017-05-16T23:54:42.370Z,14.30
2017-05-16T23:57:10.272Z,14.20
2017-05-16T23:59:38.148Z,14.10
